createdAt,value
2022-11-24T00:00:34.087Z,6.70
2022-11-24T00:03:19.574Z,6.80
2022-11-24T00:06:10.986Z,6.80
2022-11-24T00:08:56.750Z,6.70
2022-11-24T00:11:42.012Z,6.70
2022-11-24T00:14:27.409Z,6.50
2022-11-24T00:17:12.929Z,6.50
2022-11-24T00:19:58.668Z,6.40
2022-11-24T00:22:44.173Z,6.50
2022-11-24T00:25:29.785Z,6.20
2022-11-24T00:28:15.438Z,6.10
2022-11-24T00:31:01.694Z,6.00
2022-11-24T00:33:49.008Z,5.90
2022-11-24T00:36:35.852Z,6.10
2022-11-24T00:39:21.167Z,6.20
2022-11-24T00:42:06.792Z,6.10
2022-11-24T00:44:52.261Z,6.10
2022-11-24T00:47:37.841Z,6.30
2022-11-24T00:50:23.480Z,6.70
2022-11-24T00:53:09.208Z,6.30
2022-11-24T00:55:55.821Z,6.30
2022-11-24T00:58:41.809Z,6.20
2022-11-24T01:01:30.257Z,6.90
2022-11-24T01:04:15.709Z,6.30
2022-11-24T01:07:01.073Z,6.10
2022-11-24T01:09:46.703Z,6.30
2022-11-24T01:12:32.404Z,6.30
2022-11-24T01:15:17.732Z,6.30
2022-11-24T01:18:04.151Z,6.20
2022-11-24T01:20:49.500Z,6.20
2022-11-24T01:23:35.209Z,6.20
2022-11-24T01:26:21.965Z,6.20
2022-11-24T01:29:07.446Z,6.20
2022-11-24T01:31:52.634Z,6.20
2022-11-24T01:34:38.103Z,6.10
2022-11-24T01:37:23.565Z,6.10
2022-11-24T01:40:09.891Z,6.10
2022-11-24T01:42:55.464Z,6.00
2022-11-24T01:45:41.431Z,6.20
2022-11-24T01:48:32.640Z,5.90
2022-11-24T01:51:22.962Z,5.90
2022-11-24T01:54:19.755Z,5.80
2022-11-24T01:57:41.252Z,6.30
2022-11-24T02:00:26.491Z,5.70
2022-11-24T02:03:18.219Z,5.60
2022-11-24T02:06:13.091Z,5.60
2022-11-24T02:09:06.974Z,5.50
2022-11-24T02:11:54.349Z,5.40
2022-11-24T02:14:41.797Z,5.40
2022-11-24T02:17:27.200Z,5.30
2022-11-24T02:20:14.543Z,5.50
2022-11-24T02:23:02.820Z,5.70
2022-11-24T02:25:59.573Z,5.70
2022-11-24T02:28:45.953Z,6.10
2022-11-24T02:31:32.037Z,6.10
2022-11-24T02:34:17.569Z,6.20
2022-11-24T02:37:03.413Z,6.10
2022-11-24T02:39:49.052Z,6.10
2022-11-24T02:42:41.019Z,6.50
2022-11-24T02:45:27.853Z,6.20
2022-11-24T02:48:14.930Z,6.10
2022-11-24T02:51:00.088Z,6.30
2022-11-24T02:53:45.758Z,6.30
2022-11-24T02:56:31.119Z,6.60
2022-11-24T02:59:16.553Z,6.40
2022-11-24T03:02:02.970Z,6.30
2022-11-24T03:04:48.696Z,6.20
2022-11-24T03:07:34.251Z,6.50
2022-11-24T03:10:20.006Z,6.10
2022-11-24T03:13:05.341Z,6.00
2022-11-24T03:15:50.614Z,6.20
2022-11-24T03:18:36.214Z,6.20
2022-11-24T03:21:21.767Z,6.20
2022-11-24T03:24:07.377Z,6.10
2022-11-24T03:26:52.648Z,6.20
2022-11-24T03:29:38.197Z,6.40
2022-11-24T03:32:23.736Z,6.30
2022-11-24T03:35:09.579Z,6.20
2022-11-24T03:37:54.795Z,6.60
2022-11-24T03:40:40.265Z,6.20
2022-11-24T03:43:25.731Z,6.30
2022-11-24T03:46:12.339Z,6.30
2022-11-24T03:48:57.721Z,6.20
2022-11-24T03:51:43.377Z,6.30
2022-11-24T03:54:28.739Z,6.20
2022-11-24T03:57:14.317Z,6.50
2022-11-24T03:59:59.984Z,6.30
2022-11-24T04:02:45.586Z,6.20
2022-11-24T04:05:32.571Z,6.40
2022-11-24T04:08:18.373Z,6.50
2022-11-24T04:11:04.305Z,6.60
2022-11-24T04:13:50.024Z,6.60
2022-11-24T04:16:35.617Z,6.70
2022-11-24T04:19:21.200Z,6.50
2022-11-24T04:22:06.642Z,6.70
2022-11-24T04:24:52.160Z,6.60
2022-11-24T04:27:38.133Z,6.60
2022-11-24T04:30:25.219Z,6.60
2022-11-24T04:33:11.293Z,6.60
2022-11-24T04:35:56.993Z,6.50
2022-11-24T04:39:24.333Z,6.50
2022-11-24T04:41:48.219Z,6.50
2022-11-24T04:44:33.912Z,6.40
2022-11-24T04:47:22.070Z,6.30
2022-11-24T04:50:08.776Z,6.20
2022-11-24T04:52:54.133Z,6.20
2022-11-24T04:55:40.500Z,6.10
2022-11-24T04:58:25.823Z,6.00
2022-11-24T05:01:11.428Z,6.00
2022-11-24T05:03:57.770Z,5.90
2022-11-24T05:06:43.172Z,5.70
2022-11-24T05:09:47.953Z,5.90
2022-11-24T05:12:33.925Z,6.00
2022-11-24T05:15:19.104Z,6.00
2022-11-24T05:18:17.461Z,6.10
2022-11-24T05:21:02.694Z,6.20
2022-11-24T05:23:48.163Z,6.30
2022-11-24T05:26:35.513Z,6.30
2022-11-24T05:29:20.781Z,6.10
2022-11-24T05:32:07.129Z,6.00
2022-11-24T05:34:53.942Z,6.10
2022-11-24T05:37:39.273Z,6.00
2022-11-24T05:40:25.601Z,6.30
2022-11-24T05:43:15.894Z,6.40
2022-11-24T05:46:01.942Z,6.40
2022-11-24T05:48:47.123Z,6.40
2022-11-24T05:51:33.400Z,6.30
2022-11-24T05:54:18.675Z,6.30
2022-11-24T05:57:04.523Z,7.40
2022-11-24T05:59:49.871Z,7.30
2022-11-24T06:02:35.512Z,6.30
2022-11-24T06:05:21.772Z,6.60
2022-11-24T06:08:07.317Z,8.20
2022-11-24T06:10:52.970Z,6.30
2022-11-24T06:13:41.524Z,6.40
2022-11-24T06:16:27.037Z,6.60
2022-11-24T06:19:12.737Z,6.80
2022-11-24T06:21:58.289Z,6.60
2022-11-24T06:24:43.502Z,6.80
2022-11-24T06:27:28.890Z,6.60
2022-11-24T06:30:15.128Z,6.70
2022-11-24T06:33:00.962Z,6.60
2022-11-24T06:35:46.456Z,6.70
2022-11-24T06:38:32.616Z,6.60
2022-11-24T06:41:18.508Z,6.60
2022-11-24T06:44:04.968Z,6.60
2022-11-24T06:46:50.120Z,6.60
2022-11-24T06:49:35.808Z,6.30
2022-11-24T06:52:21.335Z,6.50
2022-11-24T06:55:07.432Z,6.50
2022-11-24T06:57:52.981Z,6.50
2022-11-24T07:00:38.979Z,6.60
2022-11-24T07:03:24.643Z,6.70
2022-11-24T07:06:10.142Z,6.50
2022-11-24T07:08:55.473Z,6.80
2022-11-24T07:11:41.581Z,6.70
2022-11-24T07:14:26.828Z,6.60
2022-11-24T07:17:12.574Z,6.60
2022-11-24T07:19:57.520Z,6.50
2022-11-24T07:22:43.106Z,6.60
2022-11-24T07:25:28.795Z,6.80
2022-11-24T07:28:14.673Z,6.60
2022-11-24T07:31:11.756Z,6.90
2022-11-24T07:33:58.058Z,6.70
2022-11-24T07:36:45.132Z,6.80
2022-11-24T07:39:30.584Z,6.90
2022-11-24T07:42:16.077Z,6.80
2022-11-24T07:45:01.813Z,6.70
2022-11-24T07:47:47.018Z,8.50
2022-11-24T07:50:32.541Z,7.00
2022-11-24T07:53:19.091Z,7.10
2022-11-24T07:56:06.404Z,7.30
2022-11-24T07:58:53.086Z,7.40
2022-11-24T08:01:39.344Z,7.30
2022-11-24T08:04:24.794Z,7.30
2022-11-24T08:07:10.450Z,7.40
2022-11-24T08:09:55.895Z,7.50
2022-11-24T08:12:43.821Z,7.20
2022-11-24T08:15:29.661Z,7.40
2022-11-24T08:18:15.253Z,7.40
2022-11-24T08:21:01.035Z,8.30
2022-11-24T08:23:46.986Z,7.50
2022-11-24T08:26:32.284Z,7.70
2022-11-24T08:29:17.859Z,7.80
2022-11-24T08:32:03.461Z,7.90
2022-11-24T08:34:48.700Z,8.00
2022-11-24T08:37:34.110Z,8.00
2022-11-24T08:40:20.077Z,8.00
2022-11-24T08:43:05.489Z,8.10
2022-11-24T08:45:51.030Z,10.00
2022-11-24T08:48:37.261Z,8.70
2022-11-24T08:51:26.087Z,8.20
2022-11-24T08:54:15.239Z,8.30
2022-11-24T08:57:00.725Z,8.20
2022-11-24T08:59:46.434Z,8.30
2022-11-24T09:02:32.044Z,8.70
2022-11-24T09:05:49.729Z,8.30
2022-11-24T09:08:22.689Z,8.60
2022-11-24T09:11:11.745Z,8.60
2022-11-24T09:13:57.801Z,8.50
2022-11-24T09:16:43.374Z,8.50
2022-11-24T09:19:28.723Z,8.30
2022-11-24T09:22:14.195Z,8.40
2022-11-24T09:24:59.750Z,8.50
2022-11-24T09:27:45.393Z,8.80
2022-11-24T09:30:30.949Z,8.90
2022-11-24T09:33:16.624Z,9.80
2022-11-24T09:36:03.148Z,8.60
2022-11-24T09:38:49.385Z,9.20
2022-11-24T09:41:44.498Z,8.90
2022-11-24T09:45:07.693Z,8.50
2022-11-24T09:48:30.111Z,8.60
2022-11-24T09:51:16.429Z,8.60
2022-11-24T09:54:09.416Z,8.80
2022-11-24T09:56:57.764Z,8.80
2022-11-24T09:59:43.618Z,8.80
2022-11-24T10:02:29.169Z,8.90
2022-11-24T10:05:14.787Z,8.90
2022-11-24T10:08:11.862Z,9.00
2022-11-24T10:11:00.958Z,9.00
2022-11-24T10:14:15.673Z,9.20
2022-11-24T10:17:14.023Z,9.20
2022-11-24T10:19:59.632Z,9.40
2022-11-24T10:22:52.357Z,9.30
2022-11-24T10:25:45.972Z,9.40
2022-11-24T10:28:48.964Z,9.40
2022-11-24T10:31:41.175Z,9.40
2022-11-24T10:34:34.505Z,9.60
2022-11-24T10:37:43.145Z,9.60
2022-11-24T10:40:59.605Z,9.80
2022-11-24T10:43:45.291Z,9.60
2022-11-24T10:46:36.258Z,9.50
2022-11-24T10:49:29.410Z,9.60
2022-11-24T10:52:18.822Z,9.50
2022-11-24T10:55:06.356Z,9.70
2022-11-24T10:57:51.758Z,9.90
2022-11-24T11:00:37.946Z,9.90
2022-11-24T11:03:27.554Z,9.90
2022-11-24T11:06:15.437Z,9.90
2022-11-24T11:09:07.108Z,10.10
2022-11-24T11:11:53.887Z,10.10
2022-11-24T11:14:39.466Z,10.10
2022-11-24T11:17:33.449Z,10.10
2022-11-24T11:20:30.304Z,10.90
2022-11-24T11:23:28.912Z,10.00
2022-11-24T11:26:32.510Z,10.40
2022-11-24T11:35:34.278Z,10.50
2022-11-24T11:38:20.701Z,10.10
2022-11-24T11:41:10.815Z,10.20
2022-11-24T11:44:04.617Z,10.20
2022-11-24T11:46:50.170Z,10.10
2022-11-24T11:49:38.150Z,12.40
2022-11-24T11:52:53.715Z,10.60
2022-11-24T11:55:46.607Z,10.50
2022-11-24T11:58:41.161Z,10.90
2022-11-24T12:01:32.591Z,11.30
2022-11-24T12:04:43.562Z,11.50
2022-11-24T12:07:45.443Z,10.70
2022-11-24T12:10:50.917Z,10.70
2022-11-24T12:14:11.979Z,10.90
2022-11-24T12:17:40.265Z,10.80
2022-11-24T12:20:44.989Z,10.90
2022-11-24T12:23:51.616Z,11.10
2022-11-24T12:26:49.591Z,10.90
2022-11-24T12:29:47.017Z,11.00
2022-11-24T12:32:47.504Z,11.00
2022-11-24T12:35:37.372Z,10.90
2022-11-24T12:38:38.573Z,12.30
2022-11-24T12:41:43.018Z,11.40
2022-11-24T12:44:45.510Z,10.90
2022-11-24T12:47:43.225Z,11.80
2022-11-24T12:50:30.335Z,11.00
2022-11-24T12:53:29.400Z,11.20
2022-11-24T12:56:17.623Z,11.70
2022-11-24T12:59:29.781Z,11.10
2022-11-24T13:03:05.689Z,11.10
2022-11-24T13:06:07.472Z,11.00
2022-11-24T13:08:52.689Z,11.00
2022-11-24T13:11:42.335Z,10.80
2022-11-24T13:14:32.931Z,10.90
2022-11-24T13:17:48.813Z,11.90
2022-11-24T13:20:40.486Z,11.20
2022-11-24T13:23:27.831Z,11.60
2022-11-24T13:26:43.298Z,11.40
2022-11-24T13:29:28.880Z,11.40
2022-11-24T13:32:14.566Z,11.50
2022-11-24T13:35:12.766Z,12.20
2022-11-24T13:37:58.533Z,11.60
2022-11-24T13:40:59.686Z,11.40
2022-11-24T13:44:17.231Z,11.50
2022-11-24T13:47:26.341Z,11.20
2022-11-24T13:50:25.073Z,10.90
2022-11-24T13:53:34.969Z,11.30
2022-11-24T13:56:24.600Z,11.50
2022-11-24T13:59:34.139Z,11.70
2022-11-24T14:02:24.055Z,12.30
2022-11-24T14:05:14.623Z,11.30
2022-11-24T14:08:00.442Z,11.20
2022-11-24T14:10:46.167Z,11.30
2022-11-24T14:13:33.280Z,11.80
2022-11-24T14:16:24.214Z,11.80
2022-11-24T14:19:10.955Z,11.90
2022-11-24T14:21:56.288Z,12.00
2022-11-24T14:24:45.229Z,12.00
2022-11-24T14:27:37.047Z,11.90
2022-11-24T14:30:24.081Z,12.10
2022-11-24T14:33:13.445Z,11.80
2022-11-24T14:35:58.955Z,11.90
2022-11-24T14:38:44.561Z,11.90
2022-11-24T14:41:30.352Z,11.70
2022-11-24T14:44:18.870Z,11.90
2022-11-24T14:47:06.361Z,11.70
2022-11-24T14:49:52.552Z,11.70
2022-11-24T14:52:45.283Z,11.60
2022-11-24T14:55:33.056Z,11.50
2022-11-24T14:58:30.756Z,11.40
2022-11-24T15:01:36.445Z,11.20
2022-11-24T15:04:54.272Z,10.80
2022-11-24T15:07:31.415Z,10.80
2022-11-24T15:10:34.861Z,10.70
2022-11-24T15:13:23.575Z,10.50
2022-11-24T15:16:16.304Z,10.30
2022-11-24T15:19:02.669Z,10.10
2022-11-24T15:21:48.196Z,10.20
2022-11-24T15:24:33.925Z,10.40
2022-11-24T15:27:19.757Z,10.40
2022-11-24T15:30:06.010Z,9.40
2022-11-24T15:32:55.156Z,9.40
2022-11-24T15:35:40.471Z,9.30
2022-11-24T15:38:25.706Z,9.20
2022-11-24T15:41:21.580Z,8.90
2022-11-24T15:44:08.309Z,8.90
2022-11-24T15:46:55.331Z,8.80
2022-11-24T15:49:40.717Z,8.70
2022-11-24T15:52:26.229Z,8.60
2022-11-24T15:55:20.659Z,8.50
2022-11-24T15:58:05.872Z,8.40
2022-11-24T16:00:53.629Z,8.40
2022-11-24T16:03:47.117Z,8.20
2022-11-24T16:06:33.009Z,8.10
2022-11-24T16:09:18.436Z,8.00
2022-11-24T16:12:04.059Z,7.90
2022-11-24T16:14:49.546Z,7.90
2022-11-24T16:17:34.760Z,7.80
2022-11-24T16:20:20.527Z,7.70
2022-11-24T16:23:06.478Z,7.60
2022-11-24T16:25:52.175Z,7.70
2022-11-24T16:28:37.363Z,7.60
2022-11-24T16:31:23.750Z,7.50
2022-11-24T16:34:08.973Z,7.50
2022-11-24T16:36:54.469Z,7.50
2022-11-24T16:39:39.997Z,7.50
2022-11-24T16:42:25.535Z,7.50
2022-11-24T16:45:12.911Z,7.50
2022-11-24T16:48:00.224Z,7.40
2022-11-24T16:50:45.645Z,7.40
2022-11-24T16:53:31.141Z,7.40
2022-11-24T16:56:17.555Z,7.40
2022-11-24T16:59:02.837Z,7.40
2022-11-24T17:01:50.591Z,7.40
2022-11-24T17:04:36.714Z,7.30
2022-11-24T17:07:22.591Z,7.40
2022-11-24T17:10:08.455Z,7.40
2022-11-24T17:12:53.905Z,7.40
2022-11-24T17:15:46.221Z,7.40
2022-11-24T17:18:34.522Z,7.50
2022-11-24T17:21:22.742Z,7.40
2022-11-24T17:24:11.870Z,7.50
2022-11-24T17:26:57.380Z,7.40
2022-11-24T17:29:42.939Z,7.30
2022-11-24T17:32:28.469Z,7.30
2022-11-24T17:35:13.990Z,7.20
2022-11-24T17:38:00.806Z,7.30
2022-11-24T17:40:47.837Z,7.00
2022-11-24T17:43:33.309Z,7.00
2022-11-24T17:46:19.311Z,8.50
2022-11-24T17:49:06.663Z,7.00
2022-11-24T17:51:52.263Z,6.90
2022-11-24T17:54:56.559Z,6.90
2022-11-24T17:57:42.214Z,6.70
2022-11-24T18:00:27.771Z,6.90
2022-11-24T18:03:13.099Z,6.80
2022-11-24T18:06:05.353Z,6.70
2022-11-24T18:08:51.161Z,6.80
2022-11-24T18:11:36.705Z,7.40
2022-11-24T18:14:21.965Z,6.70
2022-11-24T18:17:07.606Z,6.70
2022-11-24T18:19:53.423Z,6.50
2022-11-24T18:25:43.928Z,6.50
2022-11-24T18:28:29.172Z,7.40
2022-11-24T18:31:18.518Z,6.20
2022-11-24T18:34:05.351Z,6.20
2022-11-24T18:36:52.526Z,6.00
2022-11-24T18:39:42.003Z,6.00
2022-11-24T18:42:29.188Z,5.90
2022-11-24T18:45:14.414Z,5.90
2022-11-24T18:47:59.991Z,5.90
2022-11-24T18:50:56.541Z,7.00
2022-11-24T18:53:43.903Z,6.00
2022-11-24T18:56:29.408Z,6.00
2022-11-24T18:59:14.679Z,6.20
2022-11-24T19:02:00.119Z,6.60
2022-11-24T19:04:45.656Z,6.00
2022-11-24T19:07:31.105Z,6.00
2022-11-24T19:10:16.274Z,6.00
2022-11-24T19:13:01.900Z,5.80
2022-11-24T19:15:48.519Z,6.00
2022-11-24T19:18:33.880Z,5.90
2022-11-24T19:21:20.258Z,5.90
2022-11-24T19:24:07.096Z,5.90
2022-11-24T19:26:54.241Z,5.90
2022-11-24T19:29:43.066Z,5.90
2022-11-24T19:32:31.349Z,5.90
2022-11-24T19:35:16.686Z,5.70
2022-11-24T19:38:02.031Z,5.70
2022-11-24T19:40:47.451Z,5.60
2022-11-24T19:43:34.562Z,5.60
2022-11-24T19:46:21.516Z,5.40
2022-11-24T19:49:08.842Z,5.40
2022-11-24T19:51:54.105Z,5.40
2022-11-24T19:54:39.846Z,5.20
2022-11-24T19:57:25.169Z,5.20
2022-11-24T20:00:11.476Z,5.10
2022-11-24T20:02:56.817Z,5.30
2022-11-24T20:05:42.223Z,5.40
2022-11-24T20:08:32.392Z,5.60
2022-11-24T20:11:19.677Z,5.50
2022-11-24T20:14:05.876Z,5.80
2022-11-24T20:16:51.408Z,5.60
2022-11-24T20:19:36.704Z,5.60
2022-11-24T20:22:21.900Z,5.60
2022-11-24T20:25:08.092Z,5.60
2022-11-24T20:27:53.631Z,5.60
2022-11-24T20:30:38.882Z,5.60
2022-11-24T20:33:24.295Z,5.60
2022-11-24T20:36:17.796Z,5.60
2022-11-24T20:39:05.928Z,5.60
2022-11-24T20:41:51.993Z,5.60
2022-11-24T20:44:37.794Z,5.70
2022-11-24T20:47:23.222Z,5.70
2022-11-24T20:50:09.008Z,5.80
2022-11-24T20:52:54.513Z,5.70
2022-11-24T20:55:40.080Z,5.80
2022-11-24T20:58:25.686Z,5.70
2022-11-24T21:01:14.334Z,5.70
2022-11-24T21:04:00.888Z,6.00
2022-11-24T21:06:46.529Z,5.80
2022-11-24T21:09:31.848Z,5.70
2022-11-24T21:12:17.783Z,5.80
2022-11-24T21:15:03.573Z,5.70
2022-11-24T21:17:48.904Z,5.80
2022-11-24T21:20:34.613Z,5.80
2022-11-24T21:23:20.573Z,5.70
2022-11-24T21:26:13.088Z,5.80
2022-11-24T21:29:00.212Z,5.90
2022-11-24T21:31:45.895Z,6.10
2022-11-24T21:34:31.463Z,5.80
2022-11-24T21:37:18.240Z,5.90
2022-11-24T21:40:04.016Z,5.90
2022-11-24T21:42:49.419Z,5.70
2022-11-24T21:45:35.308Z,5.50
2022-11-24T21:48:20.543Z,5.40
2022-11-24T21:51:08.522Z,5.50
2022-11-24T21:53:54.575Z,5.50
2022-11-24T21:56:40.099Z,5.60
2022-11-24T21:59:25.864Z,5.50
2022-11-24T22:02:13.264Z,5.60
2022-11-24T22:04:58.988Z,5.60
2022-11-24T22:07:44.437Z,5.50
2022-11-24T22:10:29.899Z,5.80
2022-11-24T22:13:15.882Z,5.50
2022-11-24T22:16:07.307Z,5.70
2022-11-24T22:18:53.020Z,5.80
2022-11-24T22:21:38.334Z,5.70
2022-11-24T22:24:27.338Z,5.90
2022-11-24T22:27:12.762Z,6.00
2022-11-24T22:29:58.157Z,5.90
2022-11-24T22:32:43.872Z,6.00
2022-11-24T22:35:29.435Z,5.70
2022-11-24T22:38:14.721Z,5.90
2022-11-24T22:41:08.455Z,5.80
2022-11-24T22:43:54.432Z,6.00
2022-11-24T22:46:39.933Z,5.90
2022-11-24T22:49:25.444Z,5.80
2022-11-24T22:52:10.639Z,6.50
2022-11-24T22:54:56.189Z,5.80
2022-11-24T22:57:46.045Z,6.00
2022-11-24T23:00:33.332Z,5.80
2022-11-24T23:03:18.735Z,5.80
2022-11-24T23:06:06.910Z,5.80
2022-11-24T23:08:53.245Z,5.70
2022-11-24T23:11:40.376Z,6.50
2022-11-24T23:14:26.790Z,5.90
2022-11-24T23:17:12.382Z,5.80
2022-11-24T23:19:57.708Z,6.00
2022-11-24T23:22:43.662Z,5.90
2022-11-24T23:25:29.094Z,5.90
2022-11-24T23:28:14.700Z,5.90
2022-11-24T23:31:05.340Z,5.80
2022-11-24T23:33:50.919Z,5.90
2022-11-24T23:36:36.544Z,5.80
2022-11-24T23:39:22.131Z,5.80
2022-11-24T23:42:07.580Z,5.70
2022-11-24T23:44:52.988Z,5.70
2022-11-24T23:47:38.627Z,5.70
2022-11-24T23:50:23.896Z,5.50
2022-11-24T23:53:09.670Z,5.40
2022-11-24T23:55:55.502Z,5.50
2022-11-24T23:58:41.028Z,5.40
